Time;durP1;ratioP1;P1;durP2;ratioP2;P2;SDS_P1;SDS_P2;PMS_P1;PMS_P2;Temp;Humidity;BMP_temperature;BMP_pressure;BME280_temperature;BME280_humidity;BME280_pressure;Samples;Min_cycle;Max_cycle;Signal;HPM_P1;HPM_P2
2021/08/05 00:00:40;;;;;;;12.68;8.52;;;;;;;25.11;46.74;100894.47;5014555;28;20032;-62
2021/08/05 00:03:05;;;;;;;12.45;8.68;;;;;;;25.08;46.58;100887.53;5016053;28;20022;-62
2021/08/05 00:05:31;;;;;;;12.52;8.65;;;;;;;25.06;46.57;100888.81;5016704;28;20087;-62
2021/08/05 00:07:56;;;;;;;12.05;9.00;;;;;;;25.05;47.28;100881.66;5016494;28;20038;-62
2021/08/05 00:10:21;;;;;;;12.55;9.00;;;;;;;25.01;46.60;100877.69;5016149;28;20371;-63
2021/08/05 00:12:47;;;;;;;13.95;10.32;;;;;;;25.00;46.90;100884.22;5014587;28;20025;-62
2021/08/05 00:15:13;;;;;;;13.13;9.15;;;;;;;24.97;46.85;100884.66;5015789;28;20026;-62
2021/08/05 00:17:38;;;;;;;14.80;9.68;;;;;;;24.94;47.26;100882.38;5015365;28;20022;-63
2021/08/05 00:20:04;;;;;;;17.58;9.85;;;;;;;24.93;46.94;100880.72;5015990;28;20041;-63
2021/08/05 00:22:30;;;;;;;13.88;9.75;;;;;;;24.86;47.37;100881.59;5014484;28;20061;-63
2021/08/05 00:24:55;;;;;;;11.65;8.80;;;;;;;24.86;46.84;100887.06;5015925;28;20076;-62
2021/08/05 00:27:20;;;;;;;12.63;8.77;;;;;;;24.86;46.83;100883.47;5014307;28;20079;-62
2021/08/05 00:29:46;;;;;;;12.85;8.77;;;;;;;24.82;47.24;100883.06;5015807;28;20120;-63
2021/08/05 00:32:11;;;;;;;19.42;10.55;;;;;;;24.78;47.42;100876.34;5015477;28;20390;-62
2021/08/05 00:34:37;;;;;;;11.65;9.40;;;;;;;24.73;47.52;100862.47;5014247;28;20030;-63
2021/08/05 00:37:02;;;;;;;13.35;9.68;;;;;;;24.76;47.45;100867.47;5015383;28;20032;-63
2021/08/05 00:39:28;;;;;;;14.65;10.23;;;;;;;24.71;47.26;100859.09;5015546;28;20014;-62
2021/08/05 00:41:53;;;;;;;16.17;10.48;;;;;;;24.71;47.74;100867.31;5015703;28;20033;-63
2021/08/05 00:44:18;;;;;;;15.65;9.68;;;;;;;24.70;46.92;100865.66;5015264;28;20030;-62
2021/08/05 00:46:44;;;;;;;15.48;10.63;;;;;;;24.67;47.85;100859.75;5015505;28;20065;-63
2021/08/05 00:49:09;;;;;;;12.70;10.07;;;;;;;24.64;47.06;100847.34;5014239;28;20065;-63
2021/08/05 00:51:34;;;;;;;14.18;9.50;;;;;;;24.63;47.07;100856.63;5015159;28;20021;-62
2021/08/05 00:54:00;;;;;;;13.25;9.15;;;;;;;24.60;47.19;100850.72;5015031;28;20470;-63
2021/08/05 00:56:26;;;;;;;17.70;9.32;;;;;;;24.60;47.61;100850.72;5014140;28;20525;-62
2021/08/05 00:58:51;;;;;;;11.88;9.40;;;;;;;24.56;47.64;100839.38;5013665;28;20018;-62
2021/08/05 01:01:18;;;;;;;12.88;9.60;;;;;;;24.55;47.51;100836.84;5015185;28;20105;-63
2021/08/05 01:03:46;;;;;;;15.55;9.57;;;;;;;24.54;47.58;100829.72;5013996;28;20030;-62
2021/08/05 01:06:14;;;;;;;13.93;9.57;;;;;;;24.53;47.53;100833.50;4981269;28;20022;-63
2021/08/05 01:08:43;;;;;;;20.58;9.75;;;;;;;24.53;48.24;100833.50;5015307;28;20521;-62
2021/08/05 01:11:41;;;;;;;13.18;9.10;;;;;;;24.50;47.26;100840.25;5013212;28;20113;-62
2021/08/05 01:14:08;;;;;;;14.90;10.15;;;;;;;24.46;47.55;100828.06;5009524;28;20037;-62
2021/08/05 01:16:35;;;;;;;11.02;9.23;;;;;;;24.44;47.34;100832.91;5013806;28;20018;-62
2021/08/05 01:19:18;;;;;;;12.45;8.40;;;;;;;24.40;48.29;100834.41;5013853;28;20144;-62
2021/08/05 01:22:05;;;;;;;15.13;9.55;;;;;;;24.40;47.50;100831.66;5013442;28;20525;-63
2021/08/05 01:24:34;;;;;;;14.88;9.88;;;;;;;24.35;48.14;100828.75;5014909;28;20025;-63
2021/08/05 01:27:01;;;;;;;11.35;9.07;;;;;;;24.36;48.44;100844.13;5013548;28;20037;-63
2021/08/05 01:29:28;;;;;;;14.10;9.48;;;;;;;24.37;48.11;100834.03;5013934;28;20356;-63
2021/08/05 01:31:53;;;;;;;13.00;10.30;;;;;;;24.33;48.06;100825.41;4996761;28;20078;-63
2021/08/05 01:34:19;;;;;;;16.10;10.43;;;;;;;24.35;47.85;100834.22;5014223;28;20037;-62
2021/08/05 01:36:46;;;;;;;18.27;11.00;;;;;;;24.37;48.65;100834.03;5013186;28;20105;-62
2021/08/05 01:39:12;;;;;;;17.50;10.98;;;;;;;24.37;48.80;100829.41;5013331;28;20104;-63
2021/08/05 01:41:39;;;;;;;14.75;10.35;;;;;;;24.37;47.83;100823.06;5014467;28;20537;-63
2021/08/05 01:44:09;;;;;;;15.00;10.25;;;;;;;24.36;47.89;100827.69;5013337;28;20040;-63
2021/08/05 01:46:36;;;;;;;13.73;10.52;;;;;;;24.37;47.93;100829.41;5013271;28;20437;-63
2021/08/05 01:49:02;;;;;;;14.52;9.63;;;;;;;24.35;48.62;100817.78;5013252;28;20021;-63
2021/08/05 01:51:28;;;;;;;15.73;10.02;;;;;;;24.38;48.36;100822.84;5013493;28;20029;-62
2021/08/05 01:53:53;;;;;;;13.50;9.60;;;;;;;24.37;48.52;100817.59;5013268;28;20025;-63
2021/08/05 01:56:23;;;;;;;12.25;9.68;;;;;;;24.36;48.17;100815.91;5013085;28;20355;-63
2021/08/05 01:58:48;;;;;;;14.18;9.63;;;;;;;24.35;48.46;100820.53;5013908;28;20025;-63
2021/08/05 02:01:18;;;;;;;13.95;9.32;;;;;;;24.35;47.99;100817.78;5014011;28;20029;-63
2021/08/05 02:04:06;;;;;;;11.93;9.60;;;;;;;24.29;48.57;100811.28;5013051;28;20034;-63
2021/08/05 02:06:36;;;;;;;16.40;10.70;;;;;;;24.33;48.28;100825.41;5002350;28;20046;-62
2021/08/05 02:09:07;;;;;;;15.00;10.45;;;;;;;24.32;48.75;100815.50;5012905;28;20022;-63
2021/08/05 02:11:34;;;;;;;16.13;9.98;;;;;;;24.32;48.21;100815.50;5014147;28;20064;-62
2021/08/05 02:14:01;;;;;;;13.68;9.73;;;;;;;24.32;48.83;100812.75;5013839;28;20394;-63
2021/08/05 02:16:28;;;;;;;15.77;11.60;;;;;;;24.32;49.03;100810.88;5012643;28;20029;-62
2021/08/05 02:18:54;;;;;;;15.02;10.13;;;;;;;24.30;49.12;100801.19;5012288;28;20073;-62
2021/08/05 02:21:22;;;;;;;18.00;11.32;;;;;;;24.32;48.90;100810.88;5012885;28;20458;-62
2021/08/05 02:23:49;;;;;;;16.05;10.65;;;;;;;24.31;48.79;100800.16;5020306;28;20034;-62
2021/08/05 02:26:15;;;;;;;15.05;10.43;;;;;;;24.31;48.83;100801.00;5019400;28;20026;-62
2021/08/05 02:28:40;;;;;;;20.17;10.13;;;;;;;24.31;48.19;100797.41;5019350;28;20040;-62
2021/08/05 02:31:07;;;;;;;13.48;9.80;;;;;;;24.31;48.97;100797.41;5020495;28;20017;-62
2021/08/05 02:33:34;;;;;;;14.45;9.82;;;;;;;24.31;48.52;100789.19;5019230;28;20099;-62
2021/08/05 02:36:00;;;;;;;15.10;10.52;;;;;;;24.32;48.43;100790.84;5020951;28;20026;-62
2021/08/05 02:38:26;;;;;;;12.63;10.02;;;;;;;24.30;49.24;100795.72;5002707;28;20026;-62
2021/08/05 02:40:51;;;;;;;14.52;10.77;;;;;;;24.30;48.41;100796.56;5020407;28;20033;-62
2021/08/05 02:43:18;;;;;;;16.83;9.85;;;;;;;24.30;49.40;100795.72;5018936;28;20418;-63
2021/08/05 02:45:44;;;;;;;16.33;10.35;;;;;;;24.28;49.05;100786.88;5019222;28;20406;-62
2021/08/05 02:48:10;;;;;;;21.88;10.45;;;;;;;24.31;49.42;100789.19;5019163;28;20030;-63
2021/08/05 02:50:36;;;;;;;14.27;10.30;;;;;;;24.30;48.58;100790.25;5019150;28;20456;-63
2021/08/05 02:53:03;;;;;;;14.23;10.63;;;;;;;24.31;48.63;100786.44;5019112;28;20033;-62
2021/08/05 02:55:28;;;;;;;15.50;10.90;;;;;;;24.27;49.12;100785.19;5019315;28;20033;-63
2021/08/05 02:57:54;;;;;;;18.08;10.20;;;;;;;24.30;48.51;100790.25;5020509;28;20037;-63
2021/08/05 03:00:21;;;;;;;15.63;10.45;;;;;;;24.29;49.36;100783.06;5018787;28;20050;-62
2021/08/05 03:02:47;;;;;;;13.45;9.75;;;;;;;24.29;48.60;100791.28;5019860;28;20026;-63
2021/08/05 03:05:13;;;;;;;13.07;10.15;;;;;;;24.24;49.52;100782.91;5020202;28;20521;-62
2021/08/05 03:07:39;;;;;;;11.98;9.18;;;;;;;24.28;48.93;100786.88;5020171;28;20034;-63
2021/08/05 03:10:06;;;;;;;14.60;10.32;;;;;;;24.28;48.48;100785.00;5002216;28;20072;-63
2021/08/05 03:12:31;;;;;;;17.55;10.82;;;;;;;24.28;48.88;100781.41;5020063;28;20475;-62
2021/08/05 03:14:56;;;;;;;14.52;10.60;;;;;;;24.28;48.46;100767.72;5002063;28;20026;-62
2021/08/05 03:17:22;;;;;;;15.65;10.98;;;;;;;24.28;48.58;100775.94;5002906;28;20076;-63
2021/08/05 03:19:47;;;;;;;13.35;9.98;;;;;;;24.27;48.59;100776.97;5019521;28;20088;-62
2021/08/05 03:22:13;;;;;;;16.15;10.52;;;;;;;24.27;49.07;100783.31;5020099;28;20022;-62
2021/08/05 03:24:38;;;;;;;14.95;10.52;;;;;;;24.24;49.35;100772.78;5018452;28;20022;-62
2021/08/05 03:27:03;;;;;;;14.50;10.20;;;;;;;24.23;49.17;100770.28;5019993;28;20036;-62
2021/08/05 03:29:29;;;;;;;16.02;10.73;;;;;;;24.26;49.58;100778.06;5018556;28;20419;-62
2021/08/05 03:31:54;;;;;;;15.98;10.60;;;;;;;24.23;48.68;100775.75;5020011;28;20021;-62
2021/08/05 03:34:19;;;;;;;22.65;11.60;;;;;;;24.23;49.07;100768.38;5016839;28;20124;-62
2021/08/05 03:36:45;;;;;;;13.32;9.98;;;;;;;24.24;49.06;100770.06;5016876;28;20022;-62
2021/08/05 03:39:10;;;;;;;14.68;10.25;;;;;;;24.24;48.72;100778.25;5016996;28;20030;-63
2021/08/05 03:41:35;;;;;;;14.70;10.50;;;;;;;24.23;49.54;100767.53;5015630;28;20033;-62
2021/08/05 03:44:01;;;;;;;17.00;9.65;;;;;;;24.22;49.21;100765.84;5016691;28;20041;-63
2021/08/05 03:46:26;;;;;;;14.13;10.00;;;;;;;24.22;48.73;100754.91;5017055;28;20045;-63
2021/08/05 03:48:52;;;;;;;15.13;9.77;;;;;;;24.21;49.76;100758.69;5016607;28;20022;-63
2021/08/05 03:51:17;;;;;;;15.68;10.30;;;;;;;24.20;49.44;100757.03;5016574;28;20375;-63
2021/08/05 03:53:43;;;;;;;14.93;9.95;;;;;;;24.17;49.49;100752.00;5016451;28;20022;-62
2021/08/05 03:56:08;;;;;;;15.32;10.13;;;;;;;24.16;48.92;100764.00;5016141;28;20104;-62
2021/08/05 03:58:33;;;;;;;14.45;10.68;;;;;;;24.15;49.82;100754.09;5016353;28;20060;-62
2021/08/05 04:00:59;;;;;;;17.33;10.88;;;;;;;24.10;48.90;100740.22;5015558;28;20026;-62
2021/08/05 04:03:24;;;;;;;15.43;10.63;;;;;;;24.12;49.33;100754.56;5016347;28;20474;-62
2021/08/05 04:05:50;;;;;;;16.05;10.48;;;;;;;24.10;49.38;100740.22;5015096;28;20034;-62
2021/08/05 04:08:15;;;;;;;15.30;9.77;;;;;;;24.13;49.51;100745.25;5015047;28;20036;-62
2021/08/05 04:10:40;;;;;;;13.82;10.30;;;;;;;24.13;48.97;100748.00;5014856;28;20030;-62
2021/08/05 04:13:06;;;;;;;14.05;10.20;;;;;;;24.12;49.48;100754.56;5014557;28;20033;-62
2021/08/05 04:15:31;;;;;;;17.23;11.48;;;;;;;24.09;48.83;100754.97;5015834;28;20029;-63
2021/08/05 04:17:56;;;;;;;17.42;10.32;;;;;;;24.01;48.93;100734.13;5014393;28;20053;-62
2021/08/05 04:20:22;;;;;;;28.35;11.70;;;;;;;24.10;49.54;100749.28;5015597;28;20055;-63
2021/08/05 04:22:49;;;;;;;18.70;11.60;;;;;;;24.06;49.66;100734.34;5015996;28;20053;-63
2021/08/05 04:25:15;;;;;;;22.60;11.90;;;;;;;24.07;49.60;100740.63;5015726;28;20474;-62
2021/08/05 04:27:40;;;;;;;18.77;10.68;;;;;;;24.09;49.67;100744.84;5016002;28;20369;-62
2021/08/05 04:30:08;;;;;;;15.07;10.57;;;;;;;24.13;49.38;100753.47;5015856;28;20072;-62
2021/08/05 04:32:34;;;;;;;12.93;10.38;;;;;;;24.13;49.00;100746.09;5015780;28;20459;-63
2021/08/05 04:34:59;;;;;;;17.40;10.95;;;;;;;24.13;49.04;100746.09;5015506;28;20028;-63
2021/08/05 04:37:24;;;;;;;18.48;11.30;;;;;;;24.10;50.07;100741.06;5015458;28;20026;-62
2021/08/05 04:39:50;;;;;;;20.30;12.15;;;;;;;24.12;49.64;100743.59;5015544;28;20030;-62
2021/08/05 04:42:15;;;;;;;17.60;11.65;;;;;;;24.11;50.06;100733.69;5015656;28;20026;-62
2021/08/05 04:44:41;;;;;;;19.40;11.88;;;;;;;24.14;49.61;100746.97;5015384;28;20026;-62
2021/08/05 04:47:06;;;;;;;18.02;11.60;;;;;;;24.15;50.09;100745.88;5015714;28;20463;-63
2021/08/05 04:49:32;;;;;;;17.77;11.73;;;;;;;24.14;49.67;100746.97;5015211;28;20030;-63
2021/08/05 04:51:57;;;;;;;15.90;10.77;;;;;;;24.17;49.77;100752.84;5013978;28;20037;-62
2021/08/05 04:54:22;;;;;;;17.67;11.43;;;;;;;24.18;49.77;100745.44;5015356;28;20030;-62
2021/08/05 04:56:49;;;;;;;17.88;10.07;;;;;;;24.19;49.78;100744.38;5014323;28;20026;-62
2021/08/05 04:59:14;;;;;;;14.05;10.32;;;;;;;24.18;49.61;100735.34;5014963;28;20097;-62
2021/08/05 05:01:39;;;;;;;13.02;9.88;;;;;;;24.23;49.53;100731.94;5013798;28;20566;-63
2021/08/05 05:04:05;;;;;;;14.75;10.48;;;;;;;24.24;49.74;100726.25;5014937;28;20029;-62
2021/08/05 05:06:30;;;;;;;14.25;10.38;;;;;;;24.28;49.37;100732.97;5015222;28;20117;-62
2021/08/05 05:08:56;;;;;;;16.30;10.52;;;;;;;24.31;49.57;100726.22;5015141;28;20463;-63
2021/08/05 05:11:21;;;;;;;15.57;10.63;;;;;;;24.34;50.27;100725.78;5015132;28;20026;-63
2021/08/05 05:13:47;;;;;;;14.20;10.38;;;;;;;24.38;50.45;100731.63;5015047;28;20072;-63
2021/08/05 05:16:12;;;;;;;14.23;10.38;;;;;;;24.41;50.35;100731.19;5013544;28;20033;-63
2021/08/05 05:18:38;;;;;;;15.10;10.18;;;;;;;24.42;49.69;100722.75;5013399;28;20053;-62
2021/08/05 05:21:03;;;;;;;16.10;11.43;;;;;;;24.51;49.39;100723.34;5014864;28;20033;-62
2021/08/05 05:23:29;;;;;;;18.05;10.23;;;;;;;24.53;50.07;100738.47;5013672;28;20033;-63
2021/08/05 05:25:54;;;;;;;14.77;9.32;;;;;;;24.54;49.59;100726.44;5014819;28;20022;-63
2021/08/05 05:28:20;;;;;;;13.10;8.75;;;;;;;24.61;50.12;100738.19;5014755;28;20474;-62
2021/08/05 05:30:45;;;;;;;19.02;10.55;;;;;;;24.62;49.55;100739.84;5013794;28;20030;-62
2021/08/05 05:33:11;;;;;;;14.05;9.38;;;;;;;24.68;49.97;100730.75;5014652;28;20091;-63
2021/08/05 05:35:37;;;;;;;18.10;10.27;;;;;;;24.73;49.58;100730.09;5014346;28;20022;-62
2021/08/05 05:38:03;;;;;;;16.67;9.25;;;;;;;24.76;49.92;100733.22;5013339;28;20032;-63
2021/08/05 05:40:28;;;;;;;17.48;9.55;;;;;;;24.77;49.92;100721.19;5014492;28;20022;-63
2021/08/05 05:42:54;;;;;;;19.02;10.15;;;;;;;24.83;49.14;100728.56;5013593;28;20367;-62
2021/08/05 05:45:20;;;;;;;22.58;9.23;;;;;;;24.92;49.46;100733.75;5014686;28;20022;-63
2021/08/05 05:47:46;;;;;;;14.32;9.75;;;;;;;24.97;49.59;100731.16;5014727;28;20075;-62
2021/08/05 05:50:12;;;;;;;14.52;8.90;;;;;;;25.02;49.62;100731.31;5014673;28;20021;-62
2021/08/05 05:52:39;;;;;;;16.42;8.93;;;;;;;25.05;48.99;100730.88;5014629;28;20041;-63
2021/08/05 05:55:05;;;;;;;16.73;9.25;;;;;;;25.10;49.28;100734.59;5014215;28;20030;-63
2021/08/05 05:57:30;;;;;;;15.18;8.45;;;;;;;25.17;49.49;100740.03;5014236;28;20033;-62
2021/08/05 05:59:55;;;;;;;30.20;8.85;;;;;;;25.23;48.83;100739.97;5014251;28;20356;-63
2021/08/05 06:02:21;;;;;;;18.25;8.45;;;;;;;25.29;48.90;100738.22;5013972;28;20036;-62
2021/08/05 06:04:46;;;;;;;13.18;8.60;;;;;;;25.33;49.18;100728.47;5013834;28;20112;-63
2021/08/05 06:07:11;;;;;;;14.25;8.88;;;;;;;25.42;48.90;100740.81;5014267;28;20418;-62
2021/08/05 06:09:37;;;;;;;12.60;8.68;;;;;;;25.49;49.01;100736.13;5013093;28;20118;-63
2021/08/05 06:12:02;;;;;;;21.15;8.55;;;;;;;25.57;48.77;100740.47;5014140;28;20053;-62
2021/08/05 06:14:28;;;;;;;14.38;9.20;;;;;;;25.63;49.11;100745.88;5014054;28;20029;-62
2021/08/05 06:16:53;;;;;;;14.98;8.27;;;;;;;25.69;49.00;100744.97;5013762;28;20024;-62
2021/08/05 06:19:19;;;;;;;15.15;9.00;;;;;;;25.79;48.64;100737.03;5012332;28;20482;-62
2021/08/05 06:21:44;;;;;;;12.05;7.65;;;;;;;25.87;48.73;100744.94;5012870;28;20076;-63
2021/08/05 06:24:12;;;;;;;14.30;8.27;;;;;;;25.95;48.37;100741.03;4996393;28;20025;-63
2021/08/05 06:26:39;;;;;;;14.50;8.27;;;;;;;26.01;48.22;100740.97;5013680;28;20034;-63
2021/08/05 06:29:04;;;;;;;11.73;7.95;;;;;;;26.05;48.32;100736.66;5014010;28;20450;-63
2021/08/05 06:31:29;;;;;;;12.95;8.32;;;;;;;26.17;48.41;100733.16;5013904;28;20079;-62
2021/08/05 06:33:55;;;;;;;10.40;7.95;;;;;;;26.21;48.37;100728.88;5013601;28;20030;-63
2021/08/05 06:36:21;;;;;;;15.70;8.70;;;;;;;26.34;47.95;100731.41;5013604;28;20022;-62
2021/08/05 06:38:47;;;;;;;19.38;9.27;;;;;;;26.43;47.80;100724.53;5012925;28;20153;-63
2021/08/05 06:41:13;;;;;;;16.67;9.00;;;;;;;26.55;47.53;100730.88;5012254;28;20026;-62
2021/08/05 06:43:38;;;;;;;14.02;9.23;;;;;;;26.69;47.69;100732.31;5012628;28;20125;-62
2021/08/05 06:46:03;;;;;;;12.50;9.30;;;;;;;26.82;47.88;100732.16;5013945;28;20062;-63
2021/08/05 06:48:29;;;;;;;15.13;8.73;;;;;;;26.94;46.77;100730.22;5014101;28;20029;-62
2021/08/05 06:50:54;;;;;;;15.45;10.13;;;;;;;27.10;47.10;100728.69;5013774;28;20060;-62
2021/08/05 06:53:20;;;;;;;15.40;9.13;;;;;;;27.22;47.20;100725.94;5013490;28;20045;-62
2021/08/05 06:55:46;;;;;;;16.13;9.60;;;;;;;27.30;46.12;100718.16;5012420;28;20032;-62
2021/08/05 06:58:11;;;;;;;13.82;9.65;;;;;;;27.47;46.38;100718.28;5013636;28;20117;-63
2021/08/05 07:00:36;;;;;;;14.25;9.73;;;;;;;27.57;45.82;100724.00;5013372;28;20152;-62
2021/08/05 07:03:02;;;;;;;17.33;10.30;;;;;;;27.67;45.82;100726.94;5013319;28;20026;-63
2021/08/05 07:05:27;;;;;;;18.70;11.00;;;;;;;27.95;46.06;100729.72;5013850;28;20379;-63
2021/08/05 07:07:55;;;;;;;24.13;10.88;;;;;;;28.22;45.36;100728.09;5013796;28;20069;-63
2021/08/05 07:10:21;;;;;;;19.27;12.40;;;;;;;28.49;44.73;100728.28;5016896;28;20026;-63
2021/08/05 07:12:47;;;;;;;19.55;11.38;;;;;;;28.57;44.86;100735.31;5016994;28;20441;-62
2021/08/05 07:15:15;;;;;;;20.92;10.50;;;;;;;28.67;45.36;100730.84;5030286;28;20022;-63
2021/08/05 07:17:44;;;;;;;21.55;10.52;;;;;;;28.75;44.49;100724.09;5018832;28;20076;-62
2021/08/05 07:20:13;;;;;;;16.10;11.38;;;;;;;28.82;45.27;100721.97;5036448;28;20041;-63
2021/08/05 07:22:40;;;;;;;21.20;11.07;;;;;;;28.79;44.31;100722.47;5036883;28;20216;-62
2021/08/05 07:25:07;;;;;;;16.67;10.32;;;;;;;28.79;43.96;100728.84;5035664;28;20026;-62
2021/08/05 07:27:33;;;;;;;15.02;10.95;;;;;;;28.84;44.38;100730.81;5036724;28;20080;-62
2021/08/05 07:29:58;;;;;;;21.75;11.02;;;;;;;28.88;43.75;100726.50;5035254;28;20021;-62
2021/08/05 07:32:23;;;;;;;17.27;10.70;;;;;;;28.98;44.50;100718.38;5035158;28;20025;-62
2021/08/05 07:34:49;;;;;;;17.38;12.05;;;;;;;29.26;43.17;100723.78;5036796;28;20029;-62
2021/08/05 07:37:14;;;;;;;16.25;10.60;;;;;;;29.61;43.08;100719.84;5036931;28;20017;-63
2021/08/05 07:39:39;;;;;;;21.50;10.90;;;;;;;29.63;43.66;100712.13;5035225;28;20029;-63
2021/08/05 07:42:05;;;;;;;17.10;11.60;;;;;;;29.64;43.66;100720.16;5036218;28;20029;-62
2021/08/05 07:44:30;;;;;;;14.65;10.82;;;;;;;29.66;43.62;100722.66;5036463;28;20025;-62
2021/08/05 07:46:55;;;;;;;19.10;12.25;;;;;;;29.65;42.57;100718.25;5036248;28;20104;-62
2021/08/05 07:49:21;;;;;;;16.00;10.80;;;;;;;29.61;43.37;100722.59;5034932;28;20029;-62
2021/08/05 07:51:46;;;;;;;19.15;12.18;;;;;;;29.56;43.32;100725.31;5036370;28;20069;-63
2021/08/05 07:54:12;;;;;;;15.90;11.57;;;;;;;29.52;42.63;100721.38;5036265;28;20025;-63
2021/08/05 07:56:37;;;;;;;22.30;11.93;;;;;;;29.51;42.94;100725.25;5036171;28;20038;-62
2021/08/05 07:59:02;;;;;;;22.00;12.63;;;;;;;29.48;43.12;100723.00;5019542;28;20336;-62
2021/08/05 08:01:28;;;;;;;15.85;12.07;;;;;;;29.44;43.11;100715.22;5016625;28;20371;-62
2021/08/05 08:03:53;;;;;;;15.57;11.05;;;;;;;29.41;42.65;100704.69;5016008;28;20104;-62
2021/08/05 08:06:19;;;;;;;17.95;12.98;;;;;;;29.37;43.44;100708.19;5016408;28;20038;-62
2021/08/05 08:08:44;;;;;;;18.10;11.95;;;;;;;29.29;42.93;100712.25;5015974;28;20431;-62
2021/08/05 08:11:09;;;;;;;16.58;11.43;;;;;;;29.22;42.62;100711.59;5016254;28;20021;-62
2021/08/05 08:13:35;;;;;;;23.08;14.10;;;;;;;29.21;42.25;100709.03;5014619;28;20068;-62
2021/08/05 08:16:00;;;;;;;19.13;12.57;;;;;;;29.21;42.63;100709.88;5014804;28;20026;-63
2021/08/05 08:18:26;;;;;;;18.33;12.75;;;;;;;29.25;42.88;100711.09;5015553;28;20037;-62
2021/08/05 08:20:55;;;;;;;22.83;13.30;;;;;;;29.29;41.91;100701.19;5015505;28;20056;-63
2021/08/05 08:23:21;;;;;;;22.17;12.93;;;;;;;29.34;42.71;100703.22;5015958;28;20167;-62
2021/08/05 08:25:47;;;;;;;17.45;12.32;;;;;;;29.40;42.09;100704.94;5014665;28;20025;-63
2021/08/05 08:28:12;;;;;;;17.50;12.63;;;;;;;29.48;42.26;100701.75;5016102;28;20036;-62
2021/08/05 08:30:38;;;;;;;19.35;13.32;;;;;;;29.92;41.16;100697.88;5016245;28;20037;-62
2021/08/05 08:33:03;;;;;;;18.35;12.90;;;;;;;30.71;40.66;100706.38;5015723;28;20029;-62
2021/08/05 08:35:32;;;;;;;17.02;12.30;;;;;;;31.27;39.58;100707.63;5014482;28;20017;-60
2021/08/05 08:37:58;;;;;;;20.33;12.68;;;;;;;31.45;39.44;100693.34;5015851;28;20026;-60
2021/08/05 08:40:23;;;;;;;17.38;12.15;;;;;;;31.70;39.15;100696.25;5014648;28;20419;-60
2021/08/05 08:42:49;;;;;;;19.48;12.05;;;;;;;31.77;39.66;100689.63;5015332;28;20129;-60
2021/08/05 08:45:16;;;;;;;15.07;11.50;;;;;;;31.80;39.34;100695.44;5015313;28;20383;-60
2021/08/05 08:47:53;;;;;;;17.42;12.60;;;;;;;32.18;38.93;100696.97;5015531;28;20021;-60
2021/08/05 08:50:23;;;;;;;14.85;11.52;;;;;;;32.26;38.66;100696.41;5016102;28;20050;-60
2021/08/05 08:52:49;;;;;;;10.80;7.85;;;;;;;32.38;37.99;100697.00;5015164;28;20022;-60
2021/08/05 08:55:14;;;;;;;14.88;9.65;;;;;;;32.78;37.63;100693.38;5015051;28;20022;-59
2021/08/05 08:57:40;;;;;;;15.60;12.15;;;;;;;33.16;37.35;100686.44;5014324;28;20037;-60
2021/08/05 09:00:07;;;;;;;21.58;11.75;;;;;;;33.52;36.79;100690.75;5014870;28;20033;-60
2021/08/05 09:02:33;;;;;;;18.35;11.70;;;;;;;33.67;37.14;100693.47;5015224;28;20033;-60
2021/08/05 09:04:58;;;;;;;15.90;11.70;;;;;;;33.98;37.06;100685.81;5014145;28;20038;-59
2021/08/05 09:07:24;;;;;;;18.75;11.82;;;;;;;34.21;35.78;100676.78;5014018;28;20073;-60
2021/08/05 09:09:50;;;;;;;14.40;10.38;;;;;;;34.56;35.49;100677.63;5015178;28;20057;-61
2021/08/05 09:12:16;;;;;;;14.90;9.65;;;;;;;34.84;35.82;100680.44;5014831;28;20029;-61
2021/08/05 09:14:47;;;;;;;12.20;9.90;;;;;;;35.17;35.14;100683.50;5014964;28;20036;-60
2021/08/05 09:17:35;;;;;;;14.35;11.00;;;;;;;35.46;34.53;100675.88;5014986;28;20467;-60
2021/08/05 09:20:03;;;;;;;16.25;11.82;;;;;;;35.69;34.22;100663.91;5013018;28;20069;-60
2021/08/05 09:22:39;;;;;;;14.70;11.15;;;;;;;35.95;34.72;100668.00;5022549;28;20079;-60
2021/08/05 09:25:32;;;;;;;15.38;11.25;;;;;;;36.21;33.77;100658.13;5033241;28;20017;-60
2021/08/05 09:28:13;;;;;;;15.68;11.85;;;;;;;36.45;33.84;100660.00;5033214;28;20037;-60
2021/08/05 09:30:40;;;;;;;15.45;11.98;;;;;;;36.66;33.71;100650.97;5033224;28;20494;-60
2021/08/05 09:33:13;;;;;;;16.60;11.77;;;;;;;36.84;33.24;100652.06;5033682;28;20045;-60
2021/08/05 09:35:40;;;;;;;15.30;11.90;;;;;;;37.01;33.42;100652.31;5016314;28;20036;-60
2021/08/05 09:38:20;;;;;;;17.35;12.02;;;;;;;37.22;32.24;100647.16;5033294;28;20025;-60
2021/08/05 09:40:47;;;;;;;14.50;11.38;;;;;;;37.40;32.72;100642.59;5034055;28;20022;-60
2021/08/05 09:43:22;;;;;;;14.23;11.13;;;;;;;37.37;32.30;100632.88;5032790;28;20025;-60
2021/08/05 09:45:48;;;;;;;16.90;12.13;;;;;;;37.54;31.89;100629.44;5032695;28;20470;-61
2021/08/05 09:48:13;;;;;;;14.27;10.90;;;;;;;37.26;32.25;100637.84;5033873;28;20026;-61
2021/08/05 09:50:38;;;;;;;15.65;11.93;;;;;;;36.77;32.24;100640.44;5032674;28;20027;-60
2021/08/05 09:53:11;;;;;;;14.57;12.07;;;;;;;36.32;32.16;100635.66;5033988;28;20401;-60
2021/08/05 09:55:37;;;;;;;15.25;11.82;;;;;;;36.13;31.99;100624.50;5034065;28;20057;-60
2021/08/05 09:58:03;;;;;;;13.02;10.73;;;;;;;36.53;32.06;100629.44;5033643;28;20525;-60
2021/08/05 10:00:43;;;;;;;34.90;11.25;;;;;;;36.56;31.83;100628.00;5022564;28;20489;-61
2021/08/05 10:03:08;;;;;;;11.13;8.45;;;;;;;36.81;31.88;100624.75;5014122;28;20022;-60
2021/08/05 10:05:35;;;;;;;13.98;10.80;;;;;;;37.29;31.40;100619.63;5014396;28;20049;-60
2021/08/05 10:08:01;;;;;;;13.35;9.63;;;;;;;37.67;31.51;100628.59;5013777;28;20017;-59
2021/08/05 10:10:29;;;;;;;13.10;9.75;;;;;;;37.58;31.08;100616.50;5013857;28;20018;-60
2021/08/05 10:12:59;;;;;;;14.40;10.27;;;;;;;37.74;30.57;100615.03;5013894;28;20467;-60
2021/08/05 10:15:26;;;;;;;15.30;11.48;;;;;;;38.16;30.31;100617.38;5014076;28;20022;-60
2021/08/05 10:17:54;;;;;;;14.02;9.75;;;;;;;37.23;31.45;100613.31;5012833;28;20018;-59
2021/08/05 10:20:21;;;;;;;13.02;9.63;;;;;;;36.60;31.57;100612.31;5013944;28;20046;-59
2021/08/05 10:22:48;;;;;;;11.30;8.10;;;;;;;36.06;32.57;100610.97;5014082;28;20428;-59
2021/08/05 10:25:16;;;;;;;10.77;9.05;;;;;;;35.58;33.24;100617.78;5013726;28;20026;-59
2021/08/05 10:27:43;;;;;;;12.20;8.88;;;;;;;35.15;33.50;100602.19;5013905;28;20056;-59
2021/08/05 10:30:11;;;;;;;12.80;9.63;;;;;;;34.76;33.93;100608.69;5013626;28;20022;-60
2021/08/05 10:32:37;;;;;;;12.82;10.40;;;;;;;34.46;33.59;100608.97;5012424;28;20379;-60
2021/08/05 10:35:03;;;;;;;12.82;8.93;;;;;;;34.50;33.46;100610.91;5012591;28;20021;-60
2021/08/05 10:37:29;;;;;;;12.65;8.90;;;;;;;34.21;34.31;100611.97;5013895;28;20064;-60
2021/08/05 10:39:56;;;;;;;14.20;8.95;;;;;;;33.95;33.32;100605.75;5012799;28;20392;-60
2021/08/05 10:42:21;;;;;;;12.70;8.60;;;;;;;33.78;34.17;100606.13;5014076;28;20481;-59
2021/08/05 10:44:49;;;;;;;14.43;9.55;;;;;;;33.55;34.60;100606.81;5017002;28;20041;-60
2021/08/05 10:47:19;;;;;;;8.75;7.05;;;;;;;33.30;34.51;100605.00;5018023;28;20074;-60
2021/08/05 10:49:50;;;;;;;10.23;7.20;;;;;;;33.06;34.13;100598.41;4999876;28;20484;-60
2021/08/05 10:52:34;;;;;;;10.75;8.07;;;;;;;32.82;34.76;100600.97;5016189;28;20025;-59
2021/08/05 10:54:59;;;;;;;11.93;7.38;;;;;;;32.64;35.40;100600.72;5017489;28;20025;-60
2021/08/05 10:57:26;;;;;;;10.98;7.45;;;;;;;32.46;34.33;100596.56;5017806;28;20091;-60
2021/08/05 11:00:09;;;;;;;9.27;7.25;;;;;;;32.31;35.14;100595.75;5023150;28;20025;-60
2021/08/05 11:02:55;;;;;;;8.57;6.28;;;;;;;32.13;35.26;100599.91;5036510;28;20025;-60
2021/08/05 11:05:26;;;;;;;12.38;7.20;;;;;;;31.97;35.11;100595.41;5037142;28;20068;-60
2021/08/05 11:08:08;;;;;;;11.30;7.05;;;;;;;31.80;35.48;100597.63;5037074;28;20029;-60
2021/08/05 11:10:36;;;;;;;10.65;6.10;;;;;;;31.71;35.49;100600.13;5037067;28;20041;-60